sensor_id;sensor_type;location;lat;lon;timestamp;P1;durP1;ratioP1;P2;durP2;ratioP2
22357;SDS011;11346;50.150;8.150;2022-08-19T00:01:38;26.47;;;19.03;;
22357;SDS011;11346;50.150;8.150;2022-08-19T00:04:08;30.57;;;19.90;;
22357;SDS011;11346;50.150;8.150;2022-08-19T00:06:37;28.67;;;19.43;;
22357;SDS011;11346;50.150;8.150;2022-08-19T00:09:05;26.47;;;19.13;;
22357;SDS011;11346;50.150;8.150;2022-08-19T00:11:32;25.27;;;19.10;;
22357;SDS011;11346;50.150;8.150;2022-08-19T00:14:01;27.47;;;18.40;;
22357;SDS011;11346;50.150;8.150;2022-08-19T00:16:28;25.80;;;18.57;;
22357;SDS011;11346;50.150;8.150;2022-08-19T00:18:55;28.23;;;19.03;;
22357;SDS011;11346;50.150;8.150;2022-08-19T00:21:24;28.17;;;18.43;;
22357;SDS011;11346;50.150;8.150;2022-08-19T00:23:51;25.87;;;19.03;;
22357;SDS011;11346;50.150;8.150;2022-08-19T00:26:19;27.93;;;19.57;;
22357;SDS011;11346;50.150;8.150;2022-08-19T00:28:46;28.57;;;19.70;;
22357;SDS011;11346;50.150;8.150;2022-08-19T00:31:13;26.97;;;19.93;;
22357;SDS011;11346;50.150;8.150;2022-08-19T00:33:41;32.37;;;20.23;;
22357;SDS011;11346;50.150;8.150;2022-08-19T00:36:08;29.63;;;20.67;;
22357;SDS011;11346;50.150;8.150;2022-08-19T00:38:38;29.93;;;20.77;;
22357;SDS011;11346;50.150;8.150;2022-08-19T00:41:08;29.27;;;20.73;;
22357;SDS011;11346;50.150;8.150;2022-08-19T00:43:35;35.10;;;19.87;;
22357;SDS011;11346;50.150;8.150;2022-08-19T00:46:03;31.70;;;21.37;;
22357;SDS011;11346;50.150;8.150;2022-08-19T00:48:31;29.87;;;20.90;;
22357;SDS011;11346;50.150;8.150;2022-08-19T00:50:59;32.90;;;20.20;;
22357;SDS011;11346;50.150;8.150;2022-08-19T00:53:27;32.97;;;21.93;;
22357;SDS011;11346;50.150;8.150;2022-08-19T00:55:56;32.93;;;20.90;;
22357;SDS011;11346;50.150;8.150;2022-08-19T00:58:26;36.50;;;20.07;;
22357;SDS011;11346;50.150;8.150;2022-08-19T01:00:53;32.80;;;21.93;;
22357;SDS011;11346;50.150;8.150;2022-08-19T01:03:21;30.93;;;20.67;;
22357;SDS011;11346;50.150;8.150;2022-08-19T01:05:49;28.53;;;19.63;;
22357;SDS011;11346;50.150;8.150;2022-08-19T01:08:16;32.93;;;21.83;;
22357;SDS011;11346;50.150;8.150;2022-08-19T01:10:46;32.43;;;21.90;;
22357;SDS011;11346;50.150;8.150;2022-08-19T01:13:15;35.77;;;22.57;;
22357;SDS011;11346;50.150;8.150;2022-08-19T01:15:43;34.97;;;23.33;;
22357;SDS011;11346;50.150;8.150;2022-08-19T01:18:12;35.23;;;23.50;;
22357;SDS011;11346;50.150;8.150;2022-08-19T01:20:40;33.07;;;22.67;;
22357;SDS011;11346;50.150;8.150;2022-08-19T01:23:09;32.47;;;21.47;;
22357;SDS011;11346;50.150;8.150;2022-08-19T01:25:39;33.70;;;21.37;;
22357;SDS011;11346;50.150;8.150;2022-08-19T01:28:08;33.90;;;21.10;;
22357;SDS011;11346;50.150;8.150;2022-08-19T01:30:40;30.10;;;20.17;;
22357;SDS011;11346;50.150;8.150;2022-08-19T01:33:08;29.37;;;20.13;;
22357;SDS011;11346;50.150;8.150;2022-08-19T01:35:35;26.77;;;19.83;;
22357;SDS011;11346;50.150;8.150;2022-08-19T01:38:04;27.23;;;18.80;;
22357;SDS011;11346;50.150;8.150;2022-08-19T01:40:35;25.57;;;18.40;;
22357;SDS011;11346;50.150;8.150;2022-08-19T01:43:03;31.00;;;19.87;;
22357;SDS011;11346;50.150;8.150;2022-08-19T01:45:31;25.20;;;18.53;;
22357;SDS011;11346;50.150;8.150;2022-08-19T01:47:58;26.63;;;19.53;;
22357;SDS011;11346;50.150;8.150;2022-08-19T01:50:26;26.23;;;19.17;;
22357;SDS011;11346;50.150;8.150;2022-08-19T01:52:53;26.97;;;19.00;;
22357;SDS011;11346;50.150;8.150;2022-08-19T01:55:21;28.10;;;19.67;;
22357;SDS011;11346;50.150;8.150;2022-08-19T01:57:52;34.30;;;19.57;;
22357;SDS011;11346;50.150;8.150;2022-08-19T02:00:21;26.27;;;18.77;;
22357;SDS011;11346;50.150;8.150;2022-08-19T02:02:49;24.50;;;18.73;;
22357;SDS011;11346;50.150;8.150;2022-08-19T02:05:16;27.20;;;19.57;;
22357;SDS011;11346;50.150;8.150;2022-08-19T02:07:46;30.30;;;18.83;;
22357;SDS011;11346;50.150;8.150;2022-08-19T02:10:16;26.97;;;19.67;;
22357;SDS011;11346;50.150;8.150;2022-08-19T02:12:44;29.97;;;19.70;;
22357;SDS011;11346;50.150;8.150;2022-08-19T02:15:12;27.50;;;19.70;;
22357;SDS011;11346;50.150;8.150;2022-08-19T02:17:39;26.37;;;18.33;;
22357;SDS011;11346;50.150;8.150;2022-08-19T02:20:07;27.97;;;19.37;;
22357;SDS011;11346;50.150;8.150;2022-08-19T02:22:34;26.17;;;20.00;;
22357;SDS011;11346;50.150;8.150;2022-08-19T02:25:02;26.40;;;18.63;;
22357;SDS011;11346;50.150;8.150;2022-08-19T02:27:29;28.37;;;18.77;;
22357;SDS011;11346;50.150;8.150;2022-08-19T02:29:58;26.60;;;19.30;;
22357;SDS011;11346;50.150;8.150;2022-08-19T02:32:27;23.87;;;18.20;;
22357;SDS011;11346;50.150;8.150;2022-08-19T02:34:55;26.20;;;17.87;;
22357;SDS011;11346;50.150;8.150;2022-08-19T02:37:22;25.40;;;18.33;;
22357;SDS011;11346;50.150;8.150;2022-08-19T02:40:07;26.13;;;17.90;;
22357;SDS011;11346;50.150;8.150;2022-08-19T02:42:34;23.93;;;18.10;;
22357;SDS011;11346;50.150;8.150;2022-08-19T02:45:01;23.73;;;16.53;;
22357;SDS011;11346;50.150;8.150;2022-08-19T02:47:29;21.40;;;16.30;;
22357;SDS011;11346;50.150;8.150;2022-08-19T02:49:56;25.40;;;17.80;;
22357;SDS011;11346;50.150;8.150;2022-08-19T02:52:23;24.37;;;17.73;;
22357;SDS011;11346;50.150;8.150;2022-08-19T02:54:52;26.17;;;18.33;;
22357;SDS011;11346;50.150;8.150;2022-08-19T02:57:22;27.13;;;17.70;;
22357;SDS011;11346;50.150;8.150;2022-08-19T02:59:49;22.60;;;18.30;;
22357;SDS011;11346;50.150;8.150;2022-08-19T03:02:16;25.60;;;19.00;;
22357;SDS011;11346;50.150;8.150;2022-08-19T03:04:44;24.63;;;18.93;;
22357;SDS011;11346;50.150;8.150;2022-08-19T03:07:13;25.23;;;17.67;;
22357;SDS011;11346;50.150;8.150;2022-08-19T03:09:40;26.47;;;17.63;;
22357;SDS011;11346;50.150;8.150;2022-08-19T03:12:07;27.53;;;18.17;;
22357;SDS011;11346;50.150;8.150;2022-08-19T03:14:35;25.37;;;18.20;;
22357;SDS011;11346;50.150;8.150;2022-08-19T03:17:02;26.33;;;18.40;;
22357;SDS011;11346;50.150;8.150;2022-08-19T03:19:29;22.73;;;17.53;;
22357;SDS011;11346;50.150;8.150;2022-08-19T03:21:58;26.00;;;17.63;;
22357;SDS011;11346;50.150;8.150;2022-08-19T03:24:25;25.07;;;18.53;;
22357;SDS011;11346;50.150;8.150;2022-08-19T03:26:53;23.77;;;17.17;;
22357;SDS011;11346;50.150;8.150;2022-08-19T03:29:23;23.23;;;18.00;;
22357;SDS011;11346;50.150;8.150;2022-08-19T03:31:50;24.03;;;17.40;;
22357;SDS011;11346;50.150;8.150;2022-08-19T03:34:18;26.50;;;17.87;;
22357;SDS011;11346;50.150;8.150;2022-08-19T03:36:45;25.40;;;18.07;;
22357;SDS011;11346;50.150;8.150;2022-08-19T03:39:15;25.43;;;18.90;;
22357;SDS011;11346;50.150;8.150;2022-08-19T03:41:43;26.90;;;18.23;;
22357;SDS011;11346;50.150;8.150;2022-08-19T03:44:10;25.77;;;18.30;;
22357;SDS011;11346;50.150;8.150;2022-08-19T03:46:37;25.60;;;18.50;;
22357;SDS011;11346;50.150;8.150;2022-08-19T03:49:04;26.63;;;17.83;;
22357;SDS011;11346;50.150;8.150;2022-08-19T03:51:32;27.93;;;19.30;;
22357;SDS011;11346;50.150;8.150;2022-08-19T03:54:00;23.97;;;18.80;;
22357;SDS011;11346;50.150;8.150;2022-08-19T03:56:29;26.10;;;18.67;;
22357;SDS011;11346;50.150;8.150;2022-08-19T03:58:56;25.67;;;18.47;;
22357;SDS011;11346;50.150;8.150;2022-08-19T04:01:25;25.80;;;17.93;;
22357;SDS011;11346;50.150;8.150;2022-08-19T04:03:52;28.17;;;18.17;;
22357;SDS011;11346;50.150;8.150;2022-08-19T04:06:20;26.47;;;17.97;;
22357;SDS011;11346;50.150;8.150;2022-08-19T04:08:49;26.57;;;18.70;;
22357;SDS011;11346;50.150;8.150;2022-08-19T04:11:18;25.73;;;18.17;;
22357;SDS011;11346;50.150;8.150;2022-08-19T04:13:47;26.03;;;17.97;;
22357;SDS011;11346;50.150;8.150;2022-08-19T04:16:16;23.60;;;18.73;;
22357;SDS011;11346;50.150;8.150;2022-08-19T04:18:43;24.93;;;18.00;;
22357;SDS011;11346;50.150;8.150;2022-08-19T04:21:14;26.00;;;18.63;;
22357;SDS011;11346;50.150;8.150;2022-08-19T04:23:42;24.17;;;18.17;;
22357;SDS011;11346;50.150;8.150;2022-08-19T04:26:11;26.43;;;18.27;;
22357;SDS011;11346;50.150;8.150;2022-08-19T04:28:39;25.07;;;17.63;;
22357;SDS011;11346;50.150;8.150;2022-08-19T04:31:11;25.30;;;17.83;;
22357;SDS011;11346;50.150;8.150;2022-08-19T04:33:39;23.63;;;17.03;;
22357;SDS011;11346;50.150;8.150;2022-08-19T04:36:06;27.57;;;17.87;;
22357;SDS011;11346;50.150;8.150;2022-08-19T04:38:35;23.73;;;17.90;;
22357;SDS011;11346;50.150;8.150;2022-08-19T04:41:02;29.13;;;18.50;;
22357;SDS011;11346;50.150;8.150;2022-08-19T04:43:47;28.20;;;16.80;;
22357;SDS011;11346;50.150;8.150;2022-08-19T04:46:16;23.57;;;17.20;;
22357;SDS011;11346;50.150;8.150;2022-08-19T04:48:45;25.17;;;17.53;;
22357;SDS011;11346;50.150;8.150;2022-08-19T04:51:12;25.50;;;17.10;;
22357;SDS011;11346;50.150;8.150;2022-08-19T04:53:40;24.97;;;16.93;;
22357;SDS011;11346;50.150;8.150;2022-08-19T04:56:08;27.03;;;17.27;;
22357;SDS011;11346;50.150;8.150;2022-08-19T04:58:36;24.50;;;16.73;;
22357;SDS011;11346;50.150;8.150;2022-08-19T05:01:04;21.77;;;16.43;;
22357;SDS011;11346;50.150;8.150;2022-08-19T05:03:32;23.17;;;17.53;;
22357;SDS011;11346;50.150;8.150;2022-08-19T05:06:04;26.30;;;16.90;;
22357;SDS011;11346;50.150;8.150;2022-08-19T05:08:32;21.97;;;16.67;;
22357;SDS011;11346;50.150;8.150;2022-08-19T05:11:00;24.77;;;16.60;;
22357;SDS011;11346;50.150;8.150;2022-08-19T05:13:27;24.67;;;17.07;;
22357;SDS011;11346;50.150;8.150;2022-08-19T05:15:55;27.40;;;18.10;;
22357;SDS011;11346;50.150;8.150;2022-08-19T05:18:22;25.30;;;16.87;;
22357;SDS011;11346;50.150;8.150;2022-08-19T05:21:09;24.50;;;17.17;;
22357;SDS011;11346;50.150;8.150;2022-08-19T05:23:55;24.13;;;17.20;;
22357;SDS011;11346;50.150;8.150;2022-08-19T05:26:22;24.37;;;16.43;;
22357;SDS011;11346;50.150;8.150;2022-08-19T05:28:50;23.57;;;17.00;;
22357;SDS011;11346;50.150;8.150;2022-08-19T05:31:17;24.90;;;17.17;;
22357;SDS011;11346;50.150;8.150;2022-08-19T05:33:44;25.27;;;17.27;;
22357;SDS011;11346;50.150;8.150;2022-08-19T05:36:13;23.17;;;17.13;;
22357;SDS011;11346;50.150;8.150;2022-08-19T05:38:40;26.20;;;16.43;;
22357;SDS011;11346;50.150;8.150;2022-08-19T05:41:07;21.67;;;16.73;;
22357;SDS011;11346;50.150;8.150;2022-08-19T05:43:35;24.40;;;17.33;;
22357;SDS011;11346;50.150;8.150;2022-08-19T05:46:02;24.97;;;18.03;;
22357;SDS011;11346;50.150;8.150;2022-08-19T05:48:30;27.23;;;17.93;;
22357;SDS011;11346;50.150;8.150;2022-08-19T05:50:57;26.17;;;17.80;;
22357;SDS011;11346;50.150;8.150;2022-08-19T05:53:26;23.20;;;17.70;;
22357;SDS011;11346;50.150;8.150;2022-08-19T05:55:53;26.70;;;17.80;;
22357;SDS011;11346;50.150;8.150;2022-08-19T05:58:20;26.43;;;18.20;;
22357;SDS011;11346;50.150;8.150;2022-08-19T06:00:47;23.70;;;16.90;;
22357;SDS011;11346;50.150;8.150;2022-08-19T06:03:14;27.30;;;18.57;;
22357;SDS011;11346;50.150;8.150;2022-08-19T06:05:41;24.07;;;17.47;;
22357;SDS011;11346;50.150;8.150;2022-08-19T06:08:08;26.20;;;17.70;;
22357;SDS011;11346;50.150;8.150;2022-08-19T06:10:37;24.13;;;17.93;;
22357;SDS011;11346;50.150;8.150;2022-08-19T06:13:04;27.50;;;18.33;;
22357;SDS011;11346;50.150;8.150;2022-08-19T06:15:31;25.80;;;17.20;;
22357;SDS011;11346;50.150;8.150;2022-08-19T06:17:58;28.27;;;19.27;;
22357;SDS011;11346;50.150;8.150;2022-08-19T06:20:26;23.07;;;17.90;;
22357;SDS011;11346;50.150;8.150;2022-08-19T06:22:53;26.07;;;17.33;;
22357;SDS011;11346;50.150;8.150;2022-08-19T06:25:20;25.07;;;16.70;;
22357;SDS011;11346;50.150;8.150;2022-08-19T06:27:48;22.03;;;16.67;;
22357;SDS011;11346;50.150;8.150;2022-08-19T06:30:15;21.97;;;16.97;;
22357;SDS011;11346;50.150;8.150;2022-08-19T06:32:42;23.97;;;17.10;;
22357;SDS011;11346;50.150;8.150;2022-08-19T06:35:09;22.83;;;16.87;;
22357;SDS011;11346;50.150;8.150;2022-08-19T06:37:38;22.07;;;16.03;;
22357;SDS011;11346;50.150;8.150;2022-08-19T06:40:06;22.77;;;15.40;;
22357;SDS011;11346;50.150;8.150;2022-08-19T06:42:33;19.83;;;15.33;;
22357;SDS011;11346;50.150;8.150;2022-08-19T06:45:02;22.17;;;15.90;;
22357;SDS011;11346;50.150;8.150;2022-08-19T06:47:29;21.43;;;15.50;;
22357;SDS011;11346;50.150;8.150;2022-08-19T06:49:57;19.93;;;15.07;;
22357;SDS011;11346;50.150;8.150;2022-08-19T06:52:27;21.53;;;15.33;;
22357;SDS011;11346;50.150;8.150;2022-08-19T06:54:54;20.20;;;14.47;;
22357;SDS011;11346;50.150;8.150;2022-08-19T06:57:21;18.93;;;14.60;;
22357;SDS011;11346;50.150;8.150;2022-08-19T06:59:48;21.37;;;14.13;;
22357;SDS011;11346;50.150;8.150;2022-08-19T07:02:17;19.20;;;15.03;;
22357;SDS011;11346;50.150;8.150;2022-08-19T07:04:44;17.97;;;13.90;;
22357;SDS011;11346;50.150;8.150;2022-08-19T07:07:12;18.60;;;13.43;;
22357;SDS011;11346;50.150;8.150;2022-08-19T07:09:40;19.57;;;13.40;;
22357;SDS011;11346;50.150;8.150;2022-08-19T07:12:08;20.37;;;13.10;;
22357;SDS011;11346;50.150;8.150;2022-08-19T07:14:35;16.73;;;12.80;;
22357;SDS011;11346;50.150;8.150;2022-08-19T07:17:03;18.10;;;12.13;;
22357;SDS011;11346;50.150;8.150;2022-08-19T07:19:33;19.57;;;12.70;;
22357;SDS011;11346;50.150;8.150;2022-08-19T07:22:01;18.97;;;12.00;;
22357;SDS011;11346;50.150;8.150;2022-08-19T07:24:29;16.97;;;12.20;;
22357;SDS011;11346;50.150;8.150;2022-08-19T07:26:57;21.07;;;12.73;;
22357;SDS011;11346;50.150;8.150;2022-08-19T07:29:28;24.33;;;13.90;;
22357;SDS011;11346;50.150;8.150;2022-08-19T07:31:58;19.97;;;13.27;;
22357;SDS011;11346;50.150;8.150;2022-08-19T07:34:25;17.50;;;12.43;;
22357;SDS011;11346;50.150;8.150;2022-08-19T07:36:54;15.80;;;12.00;;
22357;SDS011;11346;50.150;8.150;2022-08-19T07:39:22;21.97;;;13.70;;
22357;SDS011;11346;50.150;8.150;2022-08-19T07:41:49;16.90;;;12.70;;
22357;SDS011;11346;50.150;8.150;2022-08-19T07:44:16;18.07;;;13.07;;
22357;SDS011;11346;50.150;8.150;2022-08-19T07:46:45;24.43;;;15.20;;
22357;SDS011;11346;50.150;8.150;2022-08-19T07:49:13;24.30;;;15.00;;
22357;SDS011;11346;50.150;8.150;2022-08-19T07:51:44;23.60;;;15.97;;
22357;SDS011;11346;50.150;8.150;2022-08-19T07:54:12;21.23;;;15.13;;
22357;SDS011;11346;50.150;8.150;2022-08-19T07:56:39;20.67;;;13.77;;
22357;SDS011;11346;50.150;8.150;2022-08-19T07:59:06;20.03;;;14.57;;
22357;SDS011;11346;50.150;8.150;2022-08-19T08:01:34;18.97;;;13.83;;
22357;SDS011;11346;50.150;8.150;2022-08-19T08:04:01;18.00;;;13.03;;
22357;SDS011;11346;50.150;8.150;2022-08-19T08:06:46;18.00;;;11.80;;
22357;SDS011;11346;50.150;8.150;2022-08-19T08:09:34;15.87;;;12.47;;
22357;SDS011;11346;50.150;8.150;2022-08-19T08:12:03;21.27;;;13.60;;
22357;SDS011;11346;50.150;8.150;2022-08-19T08:14:32;20.87;;;14.90;;
22357;SDS011;11346;50.150;8.150;2022-08-19T08:17:00;21.07;;;15.23;;
22357;SDS011;11346;50.150;8.150;2022-08-19T08:19:27;18.20;;;13.70;;
22357;SDS011;11346;50.150;8.150;2022-08-19T08:21:55;21.33;;;13.40;;
22357;SDS011;11346;50.150;8.150;2022-08-19T08:24:23;20.77;;;11.93;;
22357;SDS011;11346;50.150;8.150;2022-08-19T08:26:50;19.33;;;14.10;;
22357;SDS011;11346;50.150;8.150;2022-08-19T08:29:17;17.83;;;13.70;;
22357;SDS011;11346;50.150;8.150;2022-08-19T08:31:45;21.90;;;16.77;;
22357;SDS011;11346;50.150;8.150;2022-08-19T08:34:13;25.60;;;16.80;;
22357;SDS011;11346;50.150;8.150;2022-08-19T08:36:41;20.93;;;15.93;;
22357;SDS011;11346;50.150;8.150;2022-08-19T08:39:11;21.70;;;14.67;;
22357;SDS011;11346;50.150;8.150;2022-08-19T08:41:40;22.60;;;15.70;;
22357;SDS011;11346;50.150;8.150;2022-08-19T08:44:12;23.03;;;17.50;;
22357;SDS011;11346;50.150;8.150;2022-08-19T08:46:41;24.63;;;16.83;;
22357;SDS011;11346;50.150;8.150;2022-08-19T08:49:13;23.27;;;17.63;;
22357;SDS011;11346;50.150;8.150;2022-08-19T08:51:44;27.40;;;20.07;;
22357;SDS011;11346;50.150;8.150;2022-08-19T08:54:13;26.57;;;20.30;;
22357;SDS011;11346;50.150;8.150;2022-08-19T08:56:41;27.93;;;19.83;;
22357;SDS011;11346;50.150;8.150;2022-08-19T08:59:10;30.13;;;20.23;;
22357;SDS011;11346;50.150;8.150;2022-08-19T09:01:40;29.70;;;21.43;;
22357;SDS011;11346;50.150;8.150;2022-08-19T09:04:07;29.07;;;21.80;;
22357;SDS011;11346;50.150;8.150;2022-08-19T09:06:37;30.20;;;21.77;;
22357;SDS011;11346;50.150;8.150;2022-08-19T09:09:06;29.20;;;21.90;;
22357;SDS011;11346;50.150;8.150;2022-08-19T09:11:41;26.83;;;20.30;;
22357;SDS011;11346;50.150;8.150;2022-08-19T09:14:14;25.17;;;19.60;;
22357;SDS011;11346;50.150;8.150;2022-08-19T09:16:44;25.73;;;18.57;;
22357;SDS011;11346;50.150;8.150;2022-08-19T09:19:11;23.30;;;18.13;;
22357;SDS011;11346;50.150;8.150;2022-08-19T09:21:38;25.20;;;18.17;;
22357;SDS011;11346;50.150;8.150;2022-08-19T09:24:05;27.50;;;17.10;;
22357;SDS011;11346;50.150;8.150;2022-08-19T09:26:32;19.03;;;15.30;;
22357;SDS011;11346;50.150;8.150;2022-08-19T09:29:00;20.77;;;16.60;;
22357;SDS011;11346;50.150;8.150;2022-08-19T09:31:30;23.73;;;18.00;;
22357;SDS011;11346;50.150;8.150;2022-08-19T09:33:59;22.40;;;16.70;;
22357;SDS011;11346;50.150;8.150;2022-08-19T09:36:30;19.20;;;15.60;;
22357;SDS011;11346;50.150;8.150;2022-08-19T09:38:58;19.77;;;17.60;;
22357;SDS011;11346;50.150;8.150;2022-08-19T09:41:26;21.60;;;16.37;;
22357;SDS011;11346;50.150;8.150;2022-08-19T09:43:54;18.23;;;14.13;;
22357;SDS011;11346;50.150;8.150;2022-08-19T09:46:22;17.57;;;15.43;;
22357;SDS011;11346;50.150;8.150;2022-08-19T09:48:50;14.53;;;12.50;;
22357;SDS011;11346;50.150;8.150;2022-08-19T09:51:19;15.97;;;12.30;;
22357;SDS011;11346;50.150;8.150;2022-08-19T09:53:47;13.60;;;12.13;;
22357;SDS011;11346;50.150;8.150;2022-08-19T09:56:17;18.47;;;13.77;;
22357;SDS011;11346;50.150;8.150;2022-08-19T09:58:45;17.03;;;15.20;;
22357;SDS011;11346;50.150;8.150;2022-08-19T10:01:15;13.17;;;11.33;;
22357;SDS011;11346;50.150;8.150;2022-08-19T10:03:46;14.97;;;13.23;;
22357;SDS011;11346;50.150;8.150;2022-08-19T10:06:13;16.77;;;13.57;;
22357;SDS011;11346;50.150;8.150;2022-08-19T10:08:42;16.63;;;13.33;;
22357;SDS011;11346;50.150;8.150;2022-08-19T10:11:09;16.00;;;13.30;;
22357;SDS011;11346;50.150;8.150;2022-08-19T10:13:36;15.23;;;13.63;;
22357;SDS011;11346;50.150;8.150;2022-08-19T10:16:04;16.47;;;12.33;;
22357;SDS011;11346;50.150;8.150;2022-08-19T10:18:32;13.10;;;11.70;;
22357;SDS011;11346;50.150;8.150;2022-08-19T10:21:04;14.23;;;11.07;;
22357;SDS011;11346;50.150;8.150;2022-08-19T10:23:33;16.27;;;12.73;;
22357;SDS011;11346;50.150;8.150;2022-08-19T10:26:02;12.77;;;10.40;;
22357;SDS011;11346;50.150;8.150;2022-08-19T10:28:30;11.43;;;9.70;;
22357;SDS011;11346;50.150;8.150;2022-08-19T10:30:57;9.90;;;8.90;;
22357;SDS011;11346;50.150;8.150;2022-08-19T10:33:24;11.50;;;8.67;;
22357;SDS011;11346;50.150;8.150;2022-08-19T10:35:58;12.07;;;8.37;;
22357;SDS011;11346;50.150;8.150;2022-08-19T10:38:25;7.43;;;6.67;;
22357;SDS011;11346;50.150;8.150;2022-08-19T10:40:53;11.00;;;7.40;;
22357;SDS011;11346;50.150;8.150;2022-08-19T10:43:22;7.27;;;6.67;;
22357;SDS011;11346;50.150;8.150;2022-08-19T10:45:51;9.00;;;7.73;;
22357;SDS011;11346;50.150;8.150;2022-08-19T10:48:19;10.73;;;7.13;;
22357;SDS011;11346;50.150;8.150;2022-08-19T10:50:46;10.07;;;7.87;;
22357;SDS011;11346;50.150;8.150;2022-08-19T10:53:31;8.83;;;7.60;;
22357;SDS011;11346;50.150;8.150;2022-08-19T10:55:58;9.73;;;7.27;;
22357;SDS011;11346;50.150;8.150;2022-08-19T10:58:44;7.47;;;6.77;;
22357;SDS011;11346;50.150;8.150;2022-08-19T11:01:11;9.53;;;6.87;;
22357;SDS011;11346;50.150;8.150;2022-08-19T11:03:38;8.50;;;6.93;;
22357;SDS011;11346;50.150;8.150;2022-08-19T11:06:06;9.00;;;6.27;;
22357;SDS011;11346;50.150;8.150;2022-08-19T11:08:34;5.80;;;5.30;;
22357;SDS011;11346;50.150;8.150;2022-08-19T11:11:03;5.93;;;4.60;;
22357;SDS011;11346;50.150;8.150;2022-08-19T11:13:31;4.70;;;4.30;;
22357;SDS011;11346;50.150;8.150;2022-08-19T11:16:02;5.30;;;4.90;;
22357;SDS011;11346;50.150;8.150;2022-08-19T11:18:29;5.40;;;4.90;;
22357;SDS011;11346;50.150;8.150;2022-08-19T11:21:04;5.90;;;4.57;;
22357;SDS011;11346;50.150;8.150;2022-08-19T11:23:31;5.33;;;4.73;;
22357;SDS011;11346;50.150;8.150;2022-08-19T11:25:58;4.77;;;4.20;;
22357;SDS011;11346;50.150;8.150;2022-08-19T11:28:26;5.20;;;4.80;;
22357;SDS011;11346;50.150;8.150;2022-08-19T11:30:53;5.70;;;5.10;;
22357;SDS011;11346;50.150;8.150;2022-08-19T11:33:21;7.20;;;5.30;;
22357;SDS011;11346;50.150;8.150;2022-08-19T11:35:51;5.10;;;4.70;;
22357;SDS011;11346;50.150;8.150;2022-08-19T11:38:18;5.67;;;5.07;;
22357;SDS011;11346;50.150;8.150;2022-08-19T11:40:45;4.20;;;3.80;;
22357;SDS011;11346;50.150;8.150;2022-08-19T11:43:12;5.50;;;4.83;;
22357;SDS011;11346;50.150;8.150;2022-08-19T11:45:39;7.20;;;4.93;;
22357;SDS011;11346;50.150;8.150;2022-08-19T11:48:06;4.87;;;4.30;;
22357;SDS011;11346;50.150;8.150;2022-08-19T11:50:34;5.57;;;4.50;;
22357;SDS011;11346;50.150;8.150;2022-08-19T11:53:07;5.67;;;5.03;;
22357;SDS011;11346;50.150;8.150;2022-08-19T11:55:36;5.97;;;5.40;;
22357;SDS011;11346;50.150;8.150;2022-08-19T11:58:03;5.87;;;5.33;;
22357;SDS011;11346;50.150;8.150;2022-08-19T12:00:32;5.47;;;4.97;;
22357;SDS011;11346;50.150;8.150;2022-08-19T12:03:00;5.53;;;4.90;;
22357;SDS011;11346;50.150;8.150;2022-08-19T12:05:27;4.87;;;4.47;;
22357;SDS011;11346;50.150;8.150;2022-08-19T12:07:55;6.93;;;4.63;;
22357;SDS011;11346;50.150;8.150;2022-08-19T12:10:23;4.90;;;4.50;;
22357;SDS011;11346;50.150;8.150;2022-08-19T12:12:50;4.93;;;4.43;;
22357;SDS011;11346;50.150;8.150;2022-08-19T12:15:17;4.00;;;3.70;;
22357;SDS011;11346;50.150;8.150;2022-08-19T12:17:44;5.47;;;4.47;;
22357;SDS011;11346;50.150;8.150;2022-08-19T12:20:12;4.40;;;4.10;;
22357;SDS011;11346;50.150;8.150;2022-08-19T12:22:40;8.07;;;4.70;;
22357;SDS011;11346;50.150;8.150;2022-08-19T12:25:09;4.70;;;4.30;;
22357;SDS011;11346;50.150;8.150;2022-08-19T12:27:36;4.43;;;4.03;;
22357;SDS011;11346;50.150;8.150;2022-08-19T12:30:04;5.33;;;3.70;;
22357;SDS011;11346;50.150;8.150;2022-08-19T12:32:31;6.50;;;3.70;;
22357;SDS011;11346;50.150;8.150;2022-08-19T12:34:59;7.37;;;4.33;;
22357;SDS011;11346;50.150;8.150;2022-08-19T12:37:26;4.90;;;4.50;;
22357;SDS011;11346;50.150;8.150;2022-08-19T12:39:53;6.17;;;4.00;;
22357;SDS011;11346;50.150;8.150;2022-08-19T12:42:21;4.80;;;4.30;;
22357;SDS011;11346;50.150;8.150;2022-08-19T12:44:48;5.50;;;4.50;;
22357;SDS011;11346;50.150;8.150;2022-08-19T12:47:16;9.83;;;5.40;;
22357;SDS011;11346;50.150;8.150;2022-08-19T12:49:43;8.97;;;5.40;;
22357;SDS011;11346;50.150;8.150;2022-08-19T12:52:11;6.37;;;4.80;;
22357;SDS011;11346;50.150;8.150;2022-08-19T12:54:40;10.70;;;5.30;;
22357;SDS011;11346;50.150;8.150;2022-08-19T12:57:08;5.77;;;5.20;;
22357;SDS011;11346;50.150;8.150;2022-08-19T12:59:37;6.40;;;5.60;;
22357;SDS011;11346;50.150;8.150;2022-08-19T13:02:06;7.40;;;6.50;;
22357;SDS011;11346;50.150;8.150;2022-08-19T13:04:34;7.50;;;6.53;;
22357;SDS011;11346;50.150;8.150;2022-08-19T13:07:05;8.43;;;7.57;;
22357;SDS011;11346;50.150;8.150;2022-08-19T13:09:32;7.83;;;7.10;;
22357;SDS011;11346;50.150;8.150;2022-08-19T13:11:59;7.60;;;6.83;;
22357;SDS011;11346;50.150;8.150;2022-08-19T13:14:28;6.83;;;6.20;;
22357;SDS011;11346;50.150;8.150;2022-08-19T13:16:57;7.93;;;6.90;;
22357;SDS011;11346;50.150;8.150;2022-08-19T13:19:24;9.03;;;8.20;;
22357;SDS011;11346;50.150;8.150;2022-08-19T13:21:52;10.20;;;8.20;;
22357;SDS011;11346;50.150;8.150;2022-08-19T13:24:20;10.53;;;8.60;;
22357;SDS011;11346;50.150;8.150;2022-08-19T13:26:47;8.60;;;7.70;;
22357;SDS011;11346;50.150;8.150;2022-08-19T13:29:14;10.07;;;8.10;;
22357;SDS011;11346;50.150;8.150;2022-08-19T13:32:00;7.40;;;6.60;;
22357;SDS011;11346;50.150;8.150;2022-08-19T13:34:45;5.27;;;4.80;;
22357;SDS011;11346;50.150;8.150;2022-08-19T13:37:12;9.10;;;6.53;;
22357;SDS011;11346;50.150;8.150;2022-08-19T13:39:39;8.33;;;7.63;;
22357;SDS011;11346;50.150;8.150;2022-08-19T13:42:06;9.33;;;7.63;;
22357;SDS011;11346;50.150;8.150;2022-08-19T13:44:35;7.67;;;6.97;;
22357;SDS011;11346;50.150;8.150;2022-08-19T13:47:04;8.47;;;7.63;;
22357;SDS011;11346;50.150;8.150;2022-08-19T13:49:31;7.77;;;6.97;;
22357;SDS011;11346;50.150;8.150;2022-08-19T13:51:58;7.63;;;6.90;;
22357;SDS011;11346;50.150;8.150;2022-08-19T13:54:25;8.13;;;6.30;;
22357;SDS011;11346;50.150;8.150;2022-08-19T13:56:52;8.77;;;6.80;;
22357;SDS011;11346;50.150;8.150;2022-08-19T13:59:19;8.40;;;7.30;;
22357;SDS011;11346;50.150;8.150;2022-08-19T14:01:46;6.87;;;6.37;;
22357;SDS011;11346;50.150;8.150;2022-08-19T14:04:16;7.20;;;6.60;;
22357;SDS011;11346;50.150;8.150;2022-08-19T14:06:43;7.20;;;6.50;;
22357;SDS011;11346;50.150;8.150;2022-08-19T14:09:10;8.40;;;6.70;;
22357;SDS011;11346;50.150;8.150;2022-08-19T14:11:37;7.40;;;6.60;;
22357;SDS011;11346;50.150;8.150;2022-08-19T14:14:04;6.70;;;6.00;;
22357;SDS011;11346;50.150;8.150;2022-08-19T14:16:31;7.90;;;7.13;;
22357;SDS011;11346;50.150;8.150;2022-08-19T14:18:58;7.33;;;6.63;;
22357;SDS011;11346;50.150;8.150;2022-08-19T14:21:26;10.07;;;6.57;;
22357;SDS011;11346;50.150;8.150;2022-08-19T14:23:53;7.33;;;6.73;;
22357;SDS011;11346;50.150;8.150;2022-08-19T14:26:22;6.80;;;6.20;;
22357;SDS011;11346;50.150;8.150;2022-08-19T14:28:50;8.97;;;6.20;;
22357;SDS011;11346;50.150;8.150;2022-08-19T14:31:18;7.93;;;6.30;;
22357;SDS011;11346;50.150;8.150;2022-08-19T14:33:46;6.33;;;5.73;;
22357;SDS011;11346;50.150;8.150;2022-08-19T14:36:13;6.30;;;5.70;;